Time;durP1;ratioP1;P1;durP2;ratioP2;P2;SDS_P1;SDS_P2;PMS_P1;PMS_P2;Temp;Humidity;BMP_temperature;BMP_pressure;BME280_temperature;BME280_humidity;BME280_pressure;Samples;Min_cycle;Max_cycle;Signal;HPM_P1;HPM_P2
2023/07/18 00:00:25;;;;;;;3.77;1.47;;;13.50;99.90;;;;;;5047866;28;20644;-62
2023/07/18 00:02:54;;;;;;;1.93;1.70;;;13.50;99.90;;;;;;5046865;28;20208;-61
2023/07/18 00:05:23;;;;;;;4.97;1.47;;;13.50;99.90;;;;;;5054548;28;20283;-62
2023/07/18 00:07:51;;;;;;;1.50;1.50;;;13.40;99.90;;;;;;5058070;28;20232;-62
2023/07/18 00:10:21;;;;;;;2.97;1.67;;;13.40;99.90;;;;;;5050926;28;20291;-62
2023/07/18 00:12:50;;;;;;;1.73;1.63;;;13.30;99.90;;;;;;5048775;28;20216;-62
2023/07/18 00:15:19;;;;;;;4.53;1.73;;;13.30;99.90;;;;;;5055108;28;20212;-62
2023/07/18 00:17:48;;;;;;;2.03;1.63;;;13.20;99.90;;;;;;5051370;28;20220;-62
2023/07/18 00:20:18;;;;;;;1.70;1.60;;;13.10;99.90;;;;;;5052444;28;20262;-62
2023/07/18 00:22:48;;;;;;;3.80;1.57;;;13.10;99.90;;;;;;5056024;28;20191;-61
2023/07/18 00:25:19;;;;;;;4.40;1.90;;;13.00;99.90;;;;;;5045642;28;20204;-61
2023/07/18 00:27:49;;;;;;;4.20;1.80;;;12.90;99.90;;;;;;5049755;28;20242;-62
2023/07/18 00:30:20;;;;;;;5.40;1.87;;;12.90;99.90;;;;;;5058923;28;20189;-61
2023/07/18 00:32:49;;;;;;;2.80;1.77;;;12.80;99.90;;;;;;5049240;28;20244;-61
2023/07/18 00:35:17;;;;;;;3.03;1.40;;;12.80;99.90;;;;;;5051339;28;20287;-61
2023/07/18 00:37:46;;;;;;;2.60;1.60;;;12.80;99.90;;;;;;5045618;28;20216;-62
2023/07/18 00:40:15;;;;;;;2.40;1.77;;;12.70;99.90;;;;;;5047055;28;20203;-62
2023/07/18 00:42:47;;;;;;;2.20;2.10;;;12.70;99.90;;;;;;5051786;28;20722;-61
2023/07/18 00:45:16;;;;;;;1.80;1.70;;;12.70;99.90;;;;;;5052761;28;20193;-61
2023/07/18 00:47:46;;;;;;;2.63;1.70;;;12.70;99.90;;;;;;5047827;28;20229;-61
2023/07/18 00:50:16;;;;;;;2.93;2.00;;;12.70;99.90;;;;;;5052542;28;20193;-62
2023/07/18 00:52:48;;;;;;;3.33;1.90;;;12.60;99.90;;;;;;5049865;28;20196;-61
2023/07/18 00:55:17;;;;;;;1.77;1.67;;;12.60;99.90;;;;;;5049707;28;20858;-62
2023/07/18 00:57:47;;;;;;;1.80;1.70;;;12.60;99.90;;;;;;5051965;28;20193;-61
2023/07/18 01:00:17;;;;;;;2.43;1.50;;;12.50;99.90;;;;;;5055553;28;20253;-61
2023/07/18 01:02:47;;;;;;;3.23;1.60;;;12.50;99.90;;;;;;5044780;28;20181;-61
2023/07/18 01:05:18;;;;;;;3.63;1.83;;;12.50;99.90;;;;;;5051962;28;20279;-61
2023/07/18 01:07:46;;;;;;;3.97;2.10;;;12.50;99.90;;;;;;5067882;28;20197;-62
2023/07/18 01:10:23;;;;;;;4.07;1.73;;;12.50;99.90;;;;;;5046691;28;20296;-61
2023/07/18 01:12:53;;;;;;;8.43;2.07;;;12.40;99.90;;;;;;5044937;28;21435;-62
2023/07/18 01:15:22;;;;;;;3.93;1.87;;;12.40;99.90;;;;;;5052724;28;20742;-62
2023/07/18 01:17:52;;;;;;;3.00;1.83;;;12.50;99.90;;;;;;5050956;28;20207;-62
2023/07/18 01:20:22;;;;;;;2.10;1.83;;;12.50;99.90;;;;;;5054253;28;20219;-62
2023/07/18 01:22:54;;;;;;;3.77;2.13;;;12.50;99.90;;;;;;5049188;28;20369;-62
2023/07/18 01:25:23;;;;;;;7.70;2.03;;;12.50;99.90;;;;;;5044912;28;20524;-61
2023/07/18 01:27:53;;;;;;;8.37;1.67;;;12.50;99.90;;;;;;5057291;28;20341;-61
2023/07/18 01:30:24;;;;;;;5.07;1.93;;;12.50;99.90;;;;;;5048396;28;20189;-62
2023/07/18 01:32:53;;;;;;;2.90;1.87;;;12.50;99.90;;;;;;5047412;28;20300;-62
2023/07/18 01:35:25;;;;;;;8.00;1.87;;;12.50;99.90;;;;;;5044139;28;20214;-62
2023/07/18 01:37:56;;;;;;;2.77;2.10;;;12.50;99.90;;;;;;5048955;28;20192;-62
2023/07/18 01:40:25;;;;;;;4.63;2.30;;;12.50;99.90;;;;;;5050665;28;20199;-61
2023/07/18 01:42:55;;;;;;;4.50;2.27;;;12.50;99.90;;;;;;5047135;28;20181;-61
2023/07/18 01:45:24;;;;;;;5.00;1.80;;;12.50;99.90;;;;;;5040730;28;20195;-61
2023/07/18 01:47:53;;;;;;;6.43;2.00;;;12.50;99.90;;;;;;5048959;28;20224;-60
2023/07/18 01:50:22;;;;;;;3.70;2.20;;;12.50;99.90;;;;;;5045410;28;20551;-61
2023/07/18 01:52:50;;;;;;;6.33;2.17;;;12.50;99.90;;;;;;5044038;28;20191;-61
2023/07/18 01:55:20;;;;;;;2.30;2.10;;;12.40;99.90;;;;;;5046437;28;20570;-61
2023/07/18 01:57:50;;;;;;;8.60;2.23;;;12.40;99.90;;;;;;5046320;28;20191;-61
2023/07/18 02:00:20;;;;;;;3.07;2.20;;;12.40;99.90;;;;;;5054032;28;20304;-61
2023/07/18 02:02:51;;;;;;;5.23;2.30;;;12.40;99.90;;;;;;5051206;28;20216;-61
2023/07/18 02:05:22;;;;;;;3.27;2.30;;;12.40;99.90;;;;;;5044852;28;20234;-61
2023/07/18 02:07:50;;;;;;;4.30;2.43;;;12.30;99.90;;;;;;5047089;28;20535;-61
2023/07/18 02:10:21;;;;;;;5.10;1.83;;;12.30;99.90;;;;;;5043202;28;20212;-61
2023/07/18 02:12:51;;;;;;;9.10;2.37;;;12.30;99.90;;;;;;5055593;28;20188;-61
2023/07/18 02:15:20;;;;;;;4.13;2.10;;;12.30;99.90;;;;;;5050844;28;20184;-61
2023/07/18 02:17:49;;;;;;;3.03;2.10;;;12.30;99.90;;;;;;5043369;28;20567;-61
2023/07/18 02:20:18;;;;;;;4.13;2.17;;;12.20;99.90;;;;;;5060210;28;20204;-61
2023/07/18 02:22:47;;;;;;;2.97;2.00;;;12.20;99.90;;;;;;5049956;28;20203;-61
2023/07/18 02:25:17;;;;;;;2.20;2.00;;;12.20;99.90;;;;;;5053718;28;20200;-61
2023/07/18 02:27:47;;;;;;;4.77;2.10;;;12.20;99.90;;;;;;5044769;28;20299;-61
2023/07/18 02:30:16;;;;;;;2.93;1.90;;;12.10;99.90;;;;;;5054818;28;20196;-61
2023/07/18 02:32:45;;;;;;;5.73;2.00;;;12.10;99.90;;;;;;5031957;28;20193;-61
2023/07/18 02:35:17;;;;;;;2.53;1.97;;;12.00;99.90;;;;;;5047413;28;20552;-61
2023/07/18 02:37:47;;;;;;;5.70;2.10;;;12.00;99.90;;;;;;5048494;28;20200;-61
2023/07/18 02:40:17;;;;;;;2.57;1.80;;;12.00;99.90;;;;;;5054280;28;20796;-61
2023/07/18 02:42:47;;;;;;;6.03;2.30;;;12.00;99.90;;;;;;5039330;28;20287;-61
2023/07/18 02:45:16;;;;;;;3.23;2.03;;;12.00;99.90;;;;;;5049568;28;20192;-61
2023/07/18 02:47:44;;;;;;;4.07;2.20;;;12.00;99.90;;;;;;5048698;28;20666;-61
2023/07/18 02:50:13;;;;;;;4.67;2.63;;;12.00;99.90;;;;;;5051505;28;20197;-60
2023/07/18 02:52:41;;;;;;;4.67;2.03;;;12.10;99.90;;;;;;5058315;28;20292;-61
2023/07/18 02:55:10;;;;;;;3.43;2.10;;;12.00;99.90;;;;;;5054129;28;20290;-61
2023/07/18 02:57:38;;;;;;;5.07;2.20;;;12.10;99.90;;;;;;5048885;28;20197;-60
2023/07/18 03:00:19;;;;;;;5.23;2.00;;;12.00;99.90;;;;;;5050373;28;20235;-61
2023/07/18 03:02:49;;;;;;;3.50;2.07;;;12.00;99.90;;;;;;5051650;28;20192;-60
2023/07/18 03:05:18;;;;;;;4.83;2.10;;;12.00;99.90;;;;;;5059786;28;20188;-61
2023/07/18 03:07:47;;;;;;;5.33;2.10;;;12.00;99.90;;;;;;5052950;28;20292;-61
2023/07/18 03:10:16;;;;;;;7.67;2.10;;;12.00;99.90;;;;;;5052237;28;20283;-61
2023/07/18 03:12:44;;;;;;;6.83;2.30;;;12.00;99.90;;;;;;5049877;28;20196;-61
2023/07/18 03:15:16;;;;;;;3.63;2.30;;;11.90;99.90;;;;;;5054143;28;20223;-61
2023/07/18 03:17:45;;;;;;;2.73;2.00;;;11.90;99.90;;;;;;5048081;28;20767;-61
2023/07/18 03:20:17;;;;;;;3.60;2.40;;;11.90;99.90;;;;;;5052386;28;20248;-61
2023/07/18 03:22:47;;;;;;;4.13;2.50;;;11.80;99.90;;;;;;5051459;28;20196;-61
2023/07/18 03:25:16;;;;;;;9.07;2.20;;;11.80;99.90;;;;;;5056190;28;20189;-61
2023/07/18 03:27:45;;;;;;;2.63;2.30;;;11.80;99.90;;;;;;5049849;28;20196;-61
2023/07/18 03:30:16;;;;;;;7.43;2.20;;;11.80;99.90;;;;;;5047626;28;20197;-61
2023/07/18 03:32:44;;;;;;;4.63;2.40;;;11.70;99.90;;;;;;5050431;28;20578;-61
2023/07/18 03:35:14;;;;;;;2.83;2.23;;;11.70;99.90;;;;;;5047509;28;20205;-61
2023/07/18 03:37:42;;;;;;;4.13;2.30;;;11.70;99.90;;;;;;5051978;28;20201;-61
2023/07/18 03:40:15;;;;;;;4.87;2.63;;;11.70;99.90;;;;;;5054203;28;20642;-62
2023/07/18 03:42:45;;;;;;;4.20;2.07;;;11.60;99.90;;;;;;5044743;28;20200;-61
2023/07/18 03:45:16;;;;;;;2.20;2.10;;;11.50;99.90;;;;;;5052003;28;20585;-61
2023/07/18 03:47:45;;;;;;;4.47;2.20;;;11.40;99.90;;;;;;5048958;28;20225;-61
2023/07/18 03:50:15;;;;;;;2.43;2.23;;;11.40;99.90;;;;;;5047479;28;20685;-61
2023/07/18 03:52:44;;;;;;;6.57;2.67;;;11.40;99.90;;;;;;5046100;28;20193;-61
2023/07/18 03:55:12;;;;;;;3.37;2.03;;;11.40;99.90;;;;;;5054108;28;20204;-61
2023/07/18 03:57:41;;;;;;;5.50;2.70;;;11.40;99.90;;;;;;5046653;28;20192;-61
2023/07/18 04:00:16;;;;;;;6.43;2.50;;;11.40;99.90;;;;;;5065104;28;20211;-61
2023/07/18 04:02:48;;;;;;;2.47;2.30;;;11.30;99.90;;;;;;5041179;28;20698;-61
2023/07/18 04:05:17;;;;;;;5.67;2.47;;;11.30;99.90;;;;;;5050706;28;20189;-61
2023/07/18 04:07:47;;;;;;;8.03;2.90;;;11.30;99.90;;;;;;5050256;28;20750;-61
2023/07/18 04:10:15;;;;;;;4.57;2.40;;;11.30;99.90;;;;;;5049804;28;20181;-61
2023/07/18 04:12:44;;;;;;;3.03;2.30;;;11.30;99.90;;;;;;5050919;28;20190;-61
2023/07/18 04:15:14;;;;;;;4.03;2.60;;;11.30;99.90;;;;;;5056978;28;20259;-61
2023/07/18 04:17:43;;;;;;;6.10;2.60;;;11.30;99.90;;;;;;5049731;28;20235;-61
2023/07/18 04:20:13;;;;;;;4.90;2.37;;;11.30;99.90;;;;;;5045339;28;20605;-61
2023/07/18 04:22:42;;;;;;;4.00;2.40;;;11.40;99.90;;;;;;5046220;28;20201;-61
2023/07/18 04:25:11;;;;;;;6.00;2.70;;;11.40;99.90;;;;;;5039845;28;20280;-61
2023/07/18 04:27:39;;;;;;;9.83;2.70;;;11.40;99.90;;;;;;5059348;28;20197;-61
2023/07/18 04:30:10;;;;;;;4.77;2.40;;;11.40;99.90;;;;;;5047619;28;20197;-61
2023/07/18 04:32:40;;;;;;;4.60;2.53;;;11.40;99.90;;;;;;5046473;28;20181;-61
2023/07/18 04:35:09;;;;;;;4.13;2.57;;;11.40;99.90;;;;;;5048239;28;20574;-61
2023/07/18 04:37:38;;;;;;;6.20;2.47;;;11.40;99.90;;;;;;5054656;28;20250;-61
2023/07/18 04:40:08;;;;;;;9.83;2.80;;;11.50;99.90;;;;;;5050171;28;20205;-61
2023/07/18 04:42:37;;;;;;;4.07;2.30;;;11.50;99.90;;;;;;5051043;28;20243;-61
2023/07/18 04:45:07;;;;;;;5.93;2.80;;;11.60;99.90;;;;;;5052213;28;20628;-61
2023/07/18 04:47:35;;;;;;;4.73;2.60;;;11.70;99.90;;;;;;5049652;28;20313;-61
2023/07/18 04:50:05;;;;;;;4.93;2.63;;;11.80;99.90;;;;;;5049738;28;20224;-61
2023/07/18 04:52:33;;;;;;;5.60;2.70;;;11.80;99.90;;;;;;5052249;28;20189;-61
2023/07/18 04:55:03;;;;;;;8.40;2.77;;;11.90;99.90;;;;;;5049825;28;20216;-61
2023/07/18 04:57:31;;;;;;;5.77;2.70;;;12.00;99.90;;;;;;5047088;28;20224;-61
2023/07/18 04:59:59;;;;;;;6.10;2.97;;;12.10;99.90;;;;;;5049566;28;20215;-61
2023/07/18 05:02:28;;;;;;;6.27;2.70;;;12.20;99.90;;;;;;5048263;28;20639;-61
2023/07/18 05:04:57;;;;;;;7.37;3.43;;;12.40;99.90;;;;;;5043834;28;20184;-61
2023/07/18 05:07:25;;;;;;;11.43;3.27;;;12.50;99.90;;;;;;5049603;28;20201;-61
2023/07/18 05:09:54;;;;;;;4.27;2.83;;;12.70;99.90;;;;;;5051411;28;20586;-61
2023/07/18 05:12:24;;;;;;;10.13;3.20;;;12.90;99.90;;;;;;5052975;28;20220;-61
2023/07/18 05:14:52;;;;;;;4.97;2.53;;;13.10;99.90;;;;;;5054973;28;20211;-61
2023/07/18 05:17:20;;;;;;;5.50;3.00;;;13.30;99.90;;;;;;5051756;28;20193;-61
2023/07/18 05:19:48;;;;;;;8.33;3.47;;;13.40;99.90;;;;;;5057547;28;20189;-60
2023/07/18 05:22:17;;;;;;;8.70;2.97;;;13.60;99.90;;;;;;5057777;28;20193;-60
2023/07/18 05:24:45;;;;;;;3.93;2.73;;;13.80;99.90;;;;;;5041287;28;20582;-60
2023/07/18 05:27:13;;;;;;;4.80;2.63;;;13.90;59.00;;;;;;5048768;28;20185;-60
2023/07/18 05:29:43;;;;;;;3.13;2.20;;;14.10;58.20;;;;;;5048990;28;20193;-61
2023/07/18 05:32:11;;;;;;;9.63;3.43;;;14.30;41.70;;;;;;5048478;28;20208;-61
2023/07/18 05:34:39;;;;;;;7.03;2.97;;;14.40;31.70;;;;;;5047083;28;20254;-61
2023/07/18 05:37:08;;;;;;;7.63;2.97;;;14.60;26.40;;;;;;5052719;28;20539;-61
2023/07/18 05:39:36;;;;;;;2.87;2.50;;;14.80;22.20;;;;;;5044541;28;20212;-61
2023/07/18 05:42:05;;;;;;;7.43;3.07;;;15.00;15.60;;;;;;5043048;28;20194;-61
2023/07/18 05:44:34;;;;;;;5.90;2.70;;;15.10;10.60;;;;;;5048781;28;21056;-60
2023/07/18 05:47:04;;;;;;;7.63;2.97;;;15.30;2.40;;;;;;5050833;28;20280;-60
2023/07/18 05:49:32;;;;;;;5.03;2.70;;;15.50;1.00;;;;;;5045635;28;20545;-60
2023/07/18 05:52:00;;;;;;;8.00;2.40;;;15.70;1.00;;;;;;5046551;28;20301;-60
2023/07/18 05:54:30;;;;;;;5.57;2.50;;;15.80;1.00;;;;;;5049903;28;20221;-61
2023/07/18 05:56:59;;;;;;;7.17;2.57;;;16.00;1.00;;;;;;5049661;28;20202;-60
2023/07/18 05:59:28;;;;;;;5.13;2.50;;;16.20;1.00;;;;;;5052739;28;20291;-61
2023/07/18 06:01:56;;;;;;;4.50;2.20;;;16.30;1.00;;;;;;5053680;28;20193;-62
2023/07/18 06:04:26;;;;;;;5.77;2.70;;;16.40;1.00;;;;;;5036848;28;20193;-61
2023/07/18 06:06:55;;;;;;;5.77;2.50;;;16.50;1.00;;;;;;5049813;28;20248;-61
2023/07/18 06:09:23;;;;;;;7.17;2.40;;;16.60;1.00;;;;;;5053915;28;20196;-61
2023/07/18 06:11:53;;;;;;;4.47;2.40;;;16.70;1.00;;;;;;5044691;28;20224;-61
2023/07/18 06:14:21;;;;;;;7.30;2.50;;;16.90;1.00;;;;;;5049326;28;20201;-61
2023/07/18 06:16:50;;;;;;;3.50;2.10;;;17.00;1.00;;;;;;5054679;28;20208;-60
2023/07/18 06:19:18;;;;;;;6.27;2.33;;;17.10;1.00;;;;;;5049503;28;20285;-61
2023/07/18 06:21:48;;;;;;;3.20;1.93;;;17.30;1.00;;;;;;5050305;28;20211;-61
2023/07/18 06:24:17;;;;;;;5.27;2.30;;;17.60;1.00;;;;;;5052347;28;20564;-60
2023/07/18 06:26:49;;;;;;;4.87;2.20;;;17.90;1.00;;;;;;5057780;28;20651;-61
2023/07/18 06:29:19;;;;;;;3.63;2.13;;;18.10;1.00;;;;;;5048012;28;20190;-61
2023/07/18 06:31:47;;;;;;;4.97;2.10;;;18.30;1.00;;;;;;5051379;28;20192;-61
2023/07/18 06:34:17;;;;;;;4.00;1.70;;;18.40;1.00;;;;;;5039562;28;20660;-61
2023/07/18 06:36:46;;;;;;;3.57;2.10;;;18.60;1.00;;;;;;5053199;28;20729;-61
2023/07/18 06:39:18;;;;;;;3.17;1.70;;;18.90;1.00;;;;;;5050099;28;20188;-61
2023/07/18 06:41:46;;;;;;;3.13;1.60;;;19.00;99.90;;;;;;5046043;28;20188;-61
2023/07/18 06:44:14;;;;;;;1.87;1.47;;;19.20;99.90;;;;;;5063850;28;20238;-61
2023/07/18 06:46:43;;;;;;;5.30;1.67;;;19.20;99.90;;;;;;5068221;28;20287;-61
2023/07/18 06:49:13;;;;;;;7.33;2.03;;;19.40;99.90;;;;;;5061633;28;20236;-61
2023/07/18 06:51:42;;;;;;;3.23;1.40;;;19.70;99.90;;;;;;5051262;28;20217;-62
2023/07/18 06:54:11;;;;;;;2.87;1.57;;;19.90;1.00;;;;;;5061343;28;20200;-61
2023/07/18 06:56:42;;;;;;;2.27;1.60;;;20.10;43.50;;;;;;5051353;28;20584;-61
2023/07/18 06:59:11;;;;;;;5.10;1.60;;;20.20;1.00;;;;;;5049089;28;20890;-61
2023/07/18 07:01:39;;;;;;;2.57;1.60;;;20.40;1.00;;;;;;5053337;28;20657;-62
2023/07/18 07:04:08;;;;;;;4.50;1.67;;;20.50;1.00;;;;;;5052078;28;20199;-62
2023/07/18 07:06:41;;;;;;;2.10;1.40;;;20.70;1.00;;;;;;5047507;28;20197;-61
2023/07/18 07:09:12;;;;;;;4.40;1.73;;;21.00;99.90;;;;;;5046824;28;20189;-61
2023/07/18 07:11:43;;;;;;;3.90;1.60;;;21.20;99.90;;;;;;5050279;28;20203;-62
2023/07/18 07:14:12;;;;;;;2.60;1.13;;;21.30;99.90;;;;;;5057831;28;20546;-62
2023/07/18 07:16:40;;;;;;;1.60;1.20;;;21.50;99.90;;;;;;5060000;28;20208;-62
2023/07/18 07:19:09;;;;;;;4.17;1.73;;;21.60;99.90;;;;;;5067662;28;20280;-62
2023/07/18 07:21:38;;;;;;;4.27;1.40;;;21.70;99.90;;;;;;5057188;28;20265;-62
2023/07/18 07:24:06;;;;;;;1.43;1.07;;;21.80;99.90;;;;;;5056239;28;21443;-62
2023/07/18 07:26:37;;;;;;;2.53;1.07;;;22.00;99.90;;;;;;5061400;28;20197;-62
2023/07/18 07:29:09;;;;;;;1.90;1.10;;;22.00;99.90;;;;;;5062928;28;20639;-62
2023/07/18 07:31:37;;;;;;;4.40;1.20;;;22.00;99.90;;;;;;5055360;28;20252;-61
2023/07/18 07:34:06;;;;;;;3.45;1.30;;;22.40;99.90;;;;;;5047361;28;20619;-61
2023/07/18 07:36:34;;;;;;;2.95;1.30;;;22.70;99.90;;;;;;5050597;28;20216;-62
2023/07/18 07:39:04;;;;;;;3.40;1.20;;;22.80;99.90;;;;;;5048514;28;20274;-62
2023/07/18 07:41:32;;;;;;;3.95;1.30;;;23.20;99.90;;;;;;5050383;28;20246;-62
2023/07/18 07:44:01;;;;;;;1.67;1.42;;;23.50;99.90;;;;;;5048174;28;20194;-62
2023/07/18 07:46:32;;;;;;;2.90;1.45;;;23.90;99.90;;;;;;5052736;28;20221;-61
2023/07/18 07:49:00;;;;;;;2.38;0.98;;;23.90;99.90;;;;;;5054144;28;20238;-62
2023/07/18 07:51:33;;;;;;;3.20;1.17;;;23.50;99.90;;;;;;5048063;28;20196;-61
2023/07/18 07:54:02;;;;;;;3.22;1.40;;;23.10;99.90;;;;;;5054062;28;20569;-61
2023/07/18 07:56:30;;;;;;;1.53;1.10;;;22.60;99.90;;;;;;5050026;28;20292;-61
2023/07/18 07:58:59;;;;;;;2.90;1.10;;;22.60;99.90;;;;;;5053190;28;20212;-61
2023/07/18 08:01:41;;;;;;;2.50;1.10;;;22.70;99.90;;;;;;5049769;28;20192;-61
2023/07/18 08:04:11;;;;;;;1.50;1.20;;;22.70;99.90;;;;;;5049041;28;20193;-61
2023/07/18 08:06:39;;;;;;;1.20;1.10;;;22.70;99.90;;;;;;5051046;28;20651;-60
2023/07/18 08:09:08;;;;;;;3.47;1.23;;;23.20;99.90;;;;;;5055071;28;20299;-61
2023/07/18 08:11:37;;;;;;;1.87;1.30;;;23.90;99.90;;;;;;5062632;28;20199;-61
2023/07/18 08:14:05;;;;;;;1.52;1.20;;;24.40;99.90;;;;;;5052535;28;20242;-61
2023/07/18 08:16:33;;;;;;;1.85;0.90;;;24.50;99.90;;;;;;5050321;28;20297;-61
2023/07/18 08:19:03;;;;;;;4.35;1.50;;;24.60;99.90;;;;;;5048071;28;20197;-62
2023/07/18 08:21:32;;;;;;;2.50;0.98;;;24.80;99.90;;;;;;5042822;28;20216;-61
2023/07/18 08:24:00;;;;;;;2.78;1.30;;;24.70;99.90;;;;;;5047960;28;20209;-61
2023/07/18 08:26:28;;;;;;;3.10;1.20;;;23.80;99.90;;;;;;5039016;28;20240;-61
2023/07/18 08:28:57;;;;;;;3.03;1.27;;;23.30;99.90;;;;;;5051156;28;20200;-61
2023/07/18 08:31:25;;;;;;;1.50;1.10;;;22.70;99.90;;;;;;5050392;28;20559;-61
2023/07/18 08:33:54;;;;;;;1.57;1.10;;;22.50;99.90;;;;;;5049773;28;20255;-61
2023/07/18 08:36:23;;;;;;;2.67;1.20;;;22.40;99.90;;;;;;5046697;28;20189;-61
2023/07/18 08:38:52;;;;;;;2.27;1.07;;;22.60;99.90;;;;;;5051393;28;20734;-61
2023/07/18 08:41:21;;;;;;;3.30;1.17;;;23.10;99.90;;;;;;5045677;28;20198;-61
2023/07/18 08:43:50;;;;;;;2.90;0.90;;;23.70;99.90;;;;;;5050500;28;20193;-61
2023/07/18 08:46:19;;;;;;;2.00;1.00;;;23.80;99.90;;;;;;5045407;28;20222;-61
2023/07/18 08:48:49;;;;;;;3.93;1.40;;;23.60;99.90;;;;;;5048567;28;20225;-62
2023/07/18 08:51:18;;;;;;;4.87;1.60;;;23.10;99.90;;;;;;5049716;28;20350;-61
2023/07/18 08:53:49;;;;;;;3.33;1.30;;;22.80;99.90;;;;;;5047014;28;20315;-61
2023/07/18 08:56:17;;;;;;;1.17;1.10;;;22.70;99.90;;;;;;5052966;28;20197;-61
2023/07/18 08:58:46;;;;;;;3.33;1.50;;;22.70;99.90;;;;;;5052448;28;20299;-61
2023/07/18 09:01:15;;;;;;;1.47;1.00;;;22.60;99.90;;;;;;5049184;28;20279;-61
2023/07/18 09:03:43;;;;;;;2.90;1.20;;;22.60;99.90;;;;;;5045897;28;20193;-61
2023/07/18 09:06:20;;;;;;;2.33;1.27;;;22.50;99.90;;;;;;5044406;28;21423;-60
2023/07/18 09:08:50;;;;;;;2.30;1.10;;;22.40;99.90;;;;;;5042619;28;20181;-61
2023/07/18 09:11:20;;;;;;;1.83;0.80;;;22.80;99.90;;;;;;5045963;28;20197;-60
2023/07/18 09:13:49;;;;;;;1.67;1.10;;;22.80;99.90;;;;;;5052225;28;20202;-61
2023/07/18 09:16:20;;;;;;;1.27;0.73;;;22.80;99.90;;;;;;5049219;28;20197;-61
2023/07/18 09:18:49;;;;;;;1.70;1.37;;;23.00;99.90;;;;;;5047283;28;20200;-61
2023/07/18 09:21:18;;;;;;;3.37;1.10;;;23.40;99.90;;;;;;5045572;28;20281;-62
2023/07/18 09:23:48;;;;;;;5.07;1.07;;;23.60;99.90;;;;;;5043265;28;20634;-61
2023/07/18 09:26:20;;;;;;;1.43;1.30;;;23.40;99.90;;;;;;5050808;28;20197;-61
2023/07/18 09:28:51;;;;;;;4.83;1.60;;;23.30;99.90;;;;;;5045952;28;20185;-61
2023/07/18 09:31:21;;;;;;;1.20;1.13;;;22.80;99.90;;;;;;5048092;28;20196;-61
2023/07/18 09:33:52;;;;;;;1.70;1.00;;;22.50;99.90;;;;;;5041300;28;20235;-61
2023/07/18 09:36:21;;;;;;;2.07;0.83;;;22.20;99.90;;;;;;5046517;28;20193;-61
2023/07/18 09:38:51;;;;;;;1.37;1.03;;;22.00;99.90;;;;;;5046091;28;20569;-61
2023/07/18 09:41:22;;;;;;;2.13;1.00;;;21.90;99.90;;;;;;5046602;28;20205;-60
2023/07/18 09:43:52;;;;;;;1.13;1.00;;;21.90;99.90;;;;;;5047607;28;22274;-61
2023/07/18 09:46:41;;;;;;;1.53;1.00;;;22.00;99.90;;;;;;5040914;28;20656;-61
2023/07/18 09:49:10;;;;;;;1.50;0.80;;;22.30;99.90;;;;;;5049716;28;20230;-61
2023/07/18 09:51:48;;;;;;;3.03;1.20;;;22.70;99.90;;;;;;5047360;28;20219;-61
2023/07/18 09:54:17;;;;;;;2.23;1.00;;;23.60;99.90;;;;;;5052093;28;20220;-61
2023/07/18 09:56:49;;;;;;;1.53;1.00;;;24.30;99.90;;;;;;5046824;28;20309;-61
2023/07/18 09:59:18;;;;;;;1.67;1.00;;;24.90;99.90;;;;;;5046840;28;20548;-61
2023/07/18 10:01:48;;;;;;;2.28;1.17;;;25.40;99.90;;;;;;5052786;28;20196;-61
2023/07/18 10:04:22;;;;;;;2.03;0.90;;;26.10;99.90;;;;;;5054645;28;20715;-61
2023/07/18 10:06:55;;;;;;;1.45;0.85;;;27.20;99.90;;;;;;5042061;28;20201;-62
2023/07/18 10:09:27;;;;;;;2.20;0.95;;;28.30;99.90;;;;;;5045760;28;20200;-62
2023/07/18 10:12:12;;;;;;;1.08;0.90;;;28.80;99.90;;;;;;5043968;28;20224;-62
2023/07/18 10:14:56;;;;;;;1.15;1.08;;;29.30;99.90;;;;;;5044300;28;20678;-60
2023/07/18 10:17:28;;;;;;;1.85;1.00;;;29.60;99.90;;;;;;5045869;28;20196;-61
2023/07/18 10:19:59;;;;;;;0.50;0.50;;;29.80;99.90;;;;;;5051818;28;20214;-61
2023/07/18 10:22:30;;;;;;;1.88;0.98;;;29.50;99.90;;;;;;5045521;28;20272;-61
2023/07/18 10:25:06;;;;;;;0.80;0.80;;;29.90;99.90;;;;;;5054454;28;20200;-61
2023/07/18 10:27:38;;;;;;;0.75;0.75;;;30.30;99.40;;;;;;5049466;28;20230;-61
2023/07/18 10:30:10;;;;;;;0.88;0.80;;;30.00;98.60;;;;;;5052011;28;20225;-61
2023/07/18 10:32:44;;;;;;;2.25;0.90;;;29.60;99.50;;;;;;5040720;28;20896;-60
2023/07/18 10:35:21;;;;;;;1.95;0.80;;;29.40;98.90;;;;;;5049687;28;20545;-61
2023/07/18 10:37:53;;;;;;;1.08;0.60;;;29.40;97.90;;;;;;5046210;28;20592;-61
2023/07/18 10:40:37;;;;;;;1.00;0.95;;;29.60;97.80;;;;;;5049463;28;20282;-62
2023/07/18 10:43:12;;;;;;;2.50;0.88;;;29.60;97.10;;;;;;5045949;28;20193;-61
2023/07/18 10:45:44;;;;;;;2.05;0.95;;;29.60;98.20;;;;;;5042942;28;20202;-61
2023/07/18 10:48:16;;;;;;;3.08;0.90;;;29.70;97.70;;;;;;5047462;28;20231;-61
2023/07/18 10:50:49;;;;;;;2.28;0.98;;;29.70;96.90;;;;;;5048064;28;20296;-62
2023/07/18 10:53:19;;;;;;;0.93;0.82;;;29.80;96.30;;;;;;5058251;28;20198;-61
2023/07/18 10:55:48;;;;;;;1.02;0.90;;;29.70;95.60;;;;;;5049799;28;20233;-61
2023/07/18 10:58:19;;;;;;;0.93;0.80;;;29.80;95.70;;;;;;5048014;28;20212;-61
2023/07/18 11:00:49;;;;;;;0.80;0.80;;;29.80;93.90;;;;;;5049423;28;20591;-61
2023/07/18 11:03:22;;;;;;;0.70;0.70;;;29.90;95.70;;;;;;5053871;28;20286;-61
2023/07/18 11:05:51;;;;;;;1.27;1.17;;;30.20;96.10;;;;;;5044468;28;20231;-61
2023/07/18 11:08:27;;;;;;;1.75;1.10;;;30.20;95.90;;;;;;5041206;28;20210;-61
2023/07/18 11:10:58;;;;;;;2.58;0.93;;;30.00;94.30;;;;;;5042082;28;20220;-61
2023/07/18 11:13:32;;;;;;;0.90;0.90;;;29.50;95.00;;;;;;5047772;28;20197;-61
2023/07/18 11:16:05;;;;;;;0.93;0.93;;;29.30;94.60;;;;;;5051911;28;20196;-61
2023/07/18 11:18:36;;;;;;;0.90;0.90;;;29.20;95.60;;;;;;5047980;28;20216;-62
2023/07/18 11:21:05;;;;;;;0.98;0.98;;;28.80;95.70;;;;;;5051082;28;20185;-61
2023/07/18 11:23:36;;;;;;;1.05;1.05;;;28.70;94.80;;;;;;5046823;28;20189;-61
2023/07/18 11:26:12;;;;;;;1.40;1.30;;;28.80;95.20;;;;;;5052783;28;20709;-61
2023/07/18 11:28:43;;;;;;;1.08;1.08;;;28.90;93.70;;;;;;5046752;28;20195;-61
2023/07/18 11:31:22;;;;;;;2.70;0.95;;;29.00;94.70;;;;;;5049845;28;20207;-61
2023/07/18 11:33:55;;;;;;;1.38;1.25;;;29.00;95.10;;;;;;5045894;28;20693;-61
2023/07/18 11:36:28;;;;;;;1.35;1.25;;;29.00;93.90;;;;;;5050289;28;20217;-61
2023/07/18 11:38:59;;;;;;;1.15;1.15;;;28.90;93.80;;;;;;5049134;28;20770;-60
2023/07/18 11:41:33;;;;;;;1.02;1.02;;;29.10;93.60;;;;;;5052931;28;20714;-60
2023/07/18 11:44:04;;;;;;;1.38;1.10;;;28.80;94.40;;;;;;5045718;28;20647;-61
2023/07/18 11:46:36;;;;;;;2.22;1.08;;;28.80;94.90;;;;;;5047829;28;20541;-60
2023/07/18 11:49:05;;;;;;;1.25;1.15;;;28.60;93.70;;;;;;5050844;28;20232;-60
2023/07/18 11:51:34;;;;;;;1.33;1.23;;;28.70;94.60;;;;;;5049266;28;20222;-61
2023/07/18 11:54:04;;;;;;;1.45;1.25;;;28.70;95.20;;;;;;5045340;28;20217;-60
2023/07/18 11:56:34;;;;;;;0.85;0.85;;;28.40;94.50;;;;;;5046355;28;20217;-61
2023/07/18 11:59:04;;;;;;;2.53;1.40;;;28.50;95.10;;;;;;5055651;28;20220;-61
2023/07/18 12:01:34;;;;;;;3.63;1.50;;;28.60;95.10;;;;;;5042689;28;20199;-61
2023/07/18 12:04:12;;;;;;;1.33;1.30;;;28.30;94.60;;;;;;5044282;28;20192;-61
2023/07/18 12:06:42;;;;;;;1.90;1.45;;;27.90;94.50;;;;;;5043339;28;20771;-60
2023/07/18 12:09:11;;;;;;;1.80;1.08;;;27.80;94.60;;;;;;5038317;28;20268;-61
2023/07/18 12:11:39;;;;;;;1.05;1.05;;;27.90;95.60;;;;;;5043764;28;20600;-60
2023/07/18 12:14:09;;;;;;;1.30;1.20;;;27.90;95.00;;;;;;5045565;28;20200;-61
2023/07/18 12:16:38;;;;;;;1.20;1.10;;;27.90;95.50;;;;;;5045781;28;20325;-61
2023/07/18 12:19:07;;;;;;;1.98;1.35;;;28.00;96.10;;;;;;5040737;28;20257;-60
2023/07/18 12:21:36;;;;;;;3.13;1.20;;;28.10;95.90;;;;;;5046220;28;20208;-61
2023/07/18 12:24:05;;;;;;;3.93;1.47;;;27.90;95.90;;;;;;5048866;28;20315;-60
2023/07/18 12:26:36;;;;;;;3.85;1.60;;;27.50;96.80;;;;;;5047154;28;21439;-61
2023/07/18 12:29:05;;;;;;;2.40;1.30;;;27.50;97.20;;;;;;5050307;28;20548;-60
2023/07/18 12:31:35;;;;;;;1.65;1.30;;;27.50;97.20;;;;;;5044601;28;20288;-60
2023/07/18 12:34:04;;;;;;;2.58;1.30;;;27.40;97.00;;;;;;5051299;28;20576;-61
2023/07/18 12:36:32;;;;;;;4.00;1.25;;;27.40;97.30;;;;;;5048253;28;20220;-60
2023/07/18 12:39:00;;;;;;;1.27;1.20;;;27.50;98.10;;;;;;5046108;28;21111;-61
2023/07/18 12:41:29;;;;;;;2.67;1.40;;;27.50;98.30;;;;;;5050738;28;20185;-60
2023/07/18 12:43:57;;;;;;;1.40;1.30;;;27.30;97.30;;;;;;5051768;28;20646;-61
2023/07/18 12:46:26;;;;;;;1.47;1.37;;;27.20;97.50;;;;;;5048477;28;20247;-60
2023/07/18 12:48:57;;;;;;;2.57;1.50;;;27.00;98.30;;;;;;5050818;28;20217;-61
2023/07/18 12:51:28;;;;;;;2.70;1.57;;;27.10;97.20;;;;;;5046800;28;20197;-61
2023/07/18 12:53:57;;;;;;;1.57;1.20;;;27.10;97.60;;;;;;5043261;28;20543;-60
2023/07/18 12:56:25;;;;;;;1.53;1.33;;;27.00;98.10;;;;;;5048710;28;20193;-61
2023/07/18 12:58:53;;;;;;;1.33;1.30;;;26.90;98.60;;;;;;5057172;28;20196;-61
2023/07/18 13:01:22;;;;;;;2.67;1.50;;;27.20;98.50;;;;;;5038897;28;20207;-61